createdAt,value
2023-01-30T00:01:21.827Z,-2.06
2023-01-30T00:04:09.828Z,-2.06
2023-01-30T00:06:55.079Z,-2.08
2023-01-30T00:09:41.267Z,-2.08
2023-01-30T00:12:26.789Z,-2.06
2023-01-30T00:15:12.254Z,-2.08
2023-01-30T00:18:00.192Z,-2.12
2023-01-30T00:20:45.521Z,-2.14
2023-01-30T00:23:32.124Z,-2.13
2023-01-30T00:26:17.714Z,-2.14
2023-01-30T00:29:02.831Z,-2.11
2023-01-30T00:31:49.091Z,-2.10
2023-01-30T00:34:35.470Z,-2.12
2023-01-30T00:37:20.881Z,-2.13
2023-01-30T00:40:07.583Z,-2.15
2023-01-30T00:46:45.419Z,-2.17
2023-01-30T00:49:31.884Z,-2.16
2023-01-30T00:52:17.552Z,-2.18
2023-01-30T00:55:06.146Z,-2.15
2023-01-30T00:57:51.399Z,-2.14
2023-01-30T01:00:36.879Z,-2.11
2023-01-30T01:03:22.910Z,-2.14
2023-01-30T01:06:08.472Z,-2.15
2023-01-30T01:08:53.951Z,-2.17
2023-01-30T01:11:39.221Z,-2.15
2023-01-30T01:14:27.684Z,-2.16
2023-01-30T01:17:13.114Z,-2.20
2023-01-30T01:19:58.298Z,-2.17
2023-01-30T01:22:45.553Z,-2.16
2023-01-30T01:25:31.421Z,-2.16
2023-01-30T01:28:23.697Z,-2.13
2023-01-30T01:31:10.928Z,-2.17
2023-01-30T01:33:56.686Z,-2.13
2023-01-30T01:36:59.153Z,-2.14
2023-01-30T01:40:03.498Z,-2.12
2023-01-30T01:42:50.410Z,-2.14
2023-01-30T01:45:35.943Z,-2.12
2023-01-30T01:48:27.917Z,-2.09
2023-01-30T01:51:30.728Z,-2.07
2023-01-30T01:54:25.410Z,-2.11
2023-01-30T01:57:16.830Z,-2.11
2023-01-30T02:00:11.650Z,-2.11
2023-01-30T02:03:03.568Z,-2.17
2023-01-30T02:05:52.551Z,-2.13
2023-01-30T02:08:41.379Z,-2.11
2023-01-30T02:11:31.515Z,-2.13
2023-01-30T02:14:19.714Z,-2.10
2023-01-30T02:17:05.150Z,-2.10
2023-01-30T02:20:28.082Z,-2.06
2023-01-30T02:24:01.551Z,-2.06
2023-01-30T02:26:50.198Z,-2.06
2023-01-30T02:30:05.195Z,-2.06
2023-01-30T02:33:03.800Z,-2.08
2023-01-30T02:36:34.810Z,-2.11
2023-01-30T02:40:07.148Z,-2.13
2023-01-30T02:43:21.219Z,-2.19
2023-01-30T02:46:21.042Z,-2.21
2023-01-30T02:49:17.877Z,-2.24
2023-01-30T02:52:08.212Z,-2.26
2023-01-30T02:54:53.747Z,-2.25
2023-01-30T02:57:39.101Z,-2.27
2023-01-30T03:00:37.142Z,-2.31
2023-01-30T03:03:28.684Z,-2.32
2023-01-30T03:06:29.367Z,-2.29
2023-01-30T03:09:30.443Z,-2.32
2023-01-30T03:12:33.604Z,-2.29
2023-01-30T03:15:22.217Z,-2.27
2023-01-30T03:18:09.408Z,-2.30
2023-01-30T03:20:55.355Z,-2.30
2023-01-30T03:23:40.805Z,-2.30
2023-01-30T03:26:30.716Z,-2.29
2023-01-30T03:29:16.339Z,-2.29
2023-01-30T03:32:02.168Z,-2.24
2023-01-30T03:34:47.921Z,-2.23
2023-01-30T03:37:33.322Z,-2.25
2023-01-30T03:40:19.620Z,-2.23
2023-01-30T03:43:05.508Z,-2.24
2023-01-30T03:45:53.291Z,-2.21
2023-01-30T03:48:39.158Z,-2.18
2023-01-30T03:51:24.767Z,-2.15
2023-01-30T03:54:12.263Z,-2.11
2023-01-30T03:56:57.544Z,-2.10
2023-01-30T03:59:43.352Z,-2.08
2023-01-30T04:02:30.754Z,-2.04
2023-01-30T04:05:18.777Z,-2.00
2023-01-30T04:08:11.128Z,-1.98
2023-01-30T04:10:57.162Z,-1.96
2023-01-30T04:13:42.920Z,-1.98
2023-01-30T04:16:29.239Z,-1.96
2023-01-30T04:19:33.863Z,-1.94
2023-01-30T04:22:19.724Z,-1.92
2023-01-30T04:25:06.169Z,-1.96
2023-01-30T04:27:51.857Z,-1.97
2023-01-30T04:30:41.342Z,-2.01
2023-01-30T04:33:52.496Z,-2.04
2023-01-30T04:36:38.502Z,-2.09
2023-01-30T04:39:24.279Z,-2.09
2023-01-30T04:42:09.416Z,-2.10
2023-01-30T04:45:03.492Z,-2.10
2023-01-30T04:47:49.998Z,-2.09
2023-01-30T04:50:38.891Z,-2.12
2023-01-30T04:53:25.778Z,-2.12
2023-01-30T04:56:13.693Z,-2.13
2023-01-30T04:58:59.338Z,-2.13
2023-01-30T05:01:48.547Z,-2.12
2023-01-30T05:04:33.943Z,-2.08
2023-01-30T05:07:19.406Z,-2.07
2023-01-30T05:10:05.388Z,-2.04
2023-01-30T05:12:50.797Z,-1.99
2023-01-30T05:15:39.973Z,-1.94
2023-01-30T05:18:25.608Z,-1.87
2023-01-30T05:21:14.368Z,-1.80
2023-01-30T05:23:59.964Z,-1.75
2023-01-30T05:26:45.414Z,-1.71
2023-01-30T05:29:31.289Z,-1.68
2023-01-30T05:32:18.513Z,-1.67
2023-01-30T05:35:04.144Z,-1.64
2023-01-30T05:37:52.836Z,-1.64
2023-01-30T05:40:38.077Z,-1.65
2023-01-30T05:43:23.505Z,-1.66
2023-01-30T05:46:11.574Z,-1.66
2023-01-30T05:48:57.610Z,-1.64
2023-01-30T05:51:43.044Z,-1.64
2023-01-30T05:54:28.523Z,-1.62
2023-01-30T05:57:13.991Z,-1.57
2023-01-30T05:59:59.317Z,-1.51
2023-01-30T06:02:44.769Z,-1.46
2023-01-30T06:05:30.505Z,-1.42
2023-01-30T06:08:15.889Z,-1.38
2023-01-30T06:11:04.496Z,-1.39
2023-01-30T06:13:50.448Z,-1.40
2023-01-30T06:16:36.023Z,-1.43
2023-01-30T06:19:21.537Z,-1.43
2023-01-30T06:22:06.910Z,-1.42
2023-01-30T06:24:52.228Z,-1.44
2023-01-30T06:27:37.553Z,-1.46
2023-01-30T06:30:22.934Z,-1.44
2023-01-30T06:33:08.796Z,-1.44
2023-01-30T06:35:54.135Z,-1.38
2023-01-30T06:38:39.359Z,-1.30
2023-01-30T06:41:24.763Z,-1.26
2023-01-30T06:44:10.270Z,-1.21
2023-01-30T06:46:55.939Z,-1.19
2023-01-30T06:49:41.769Z,-1.17
2023-01-30T06:52:27.188Z,-1.15
2023-01-30T06:55:15.343Z,-1.12
2023-01-30T06:58:03.872Z,-1.10
2023-01-30T07:00:49.048Z,-1.10
2023-01-30T07:03:34.322Z,-1.07
2023-01-30T07:06:20.067Z,-1.02
2023-01-30T07:09:05.511Z,-0.98
2023-01-30T07:11:51.370Z,-0.91
2023-01-30T07:14:36.736Z,-0.90
2023-01-30T07:17:23.037Z,-0.88
2023-01-30T07:20:10.087Z,-0.85
2023-01-30T07:22:56.458Z,-0.85
2023-01-30T07:25:41.931Z,-0.84
2023-01-30T07:28:27.446Z,-0.84
2023-01-30T07:31:12.867Z,-0.86
2023-01-30T07:33:58.275Z,-0.85
2023-01-30T07:36:43.662Z,-0.88
2023-01-30T07:39:29.067Z,-0.88
2023-01-30T07:42:14.470Z,-0.85
2023-01-30T07:44:59.735Z,-0.82
2023-01-30T07:47:45.123Z,-0.82
2023-01-30T07:50:30.815Z,-0.81
2023-01-30T07:53:18.740Z,-0.78
2023-01-30T07:56:14.174Z,-0.77
2023-01-30T07:59:00.085Z,-0.75
2023-01-30T08:01:45.094Z,-0.72
2023-01-30T08:04:30.475Z,-0.70
2023-01-30T08:07:15.666Z,-0.69
2023-01-30T08:10:01.191Z,-0.67
2023-01-30T08:12:49.677Z,-0.65
2023-01-30T08:15:34.972Z,-0.63
2023-01-30T08:18:20.538Z,-0.61
2023-01-30T08:21:07.087Z,-0.58
2023-01-30T08:23:52.488Z,-0.56
2023-01-30T08:26:38.067Z,-0.56
2023-01-30T08:29:23.951Z,-0.54
2023-01-30T08:32:09.334Z,-0.53
2023-01-30T08:34:54.756Z,-0.52
2023-01-30T08:37:41.213Z,-0.49
2023-01-30T08:40:26.627Z,-0.48
2023-01-30T08:43:11.951Z,-0.43
2023-01-30T08:45:57.205Z,-0.36
2023-01-30T08:48:49.849Z,-0.27
2023-01-30T08:51:36.139Z,-0.19
2023-01-30T08:54:21.706Z,-0.11
2023-01-30T08:57:07.382Z,-0.09
2023-01-30T08:59:52.812Z,-0.09
2023-01-30T09:02:38.502Z,-0.08
2023-01-30T09:05:24.899Z,-0.10
2023-01-30T09:08:10.097Z,-0.13
2023-01-30T09:11:04.535Z,-0.14
2023-01-30T09:13:50.346Z,-0.16
2023-01-30T09:16:35.935Z,-0.18
2023-01-30T09:19:26.908Z,-0.15
2023-01-30T09:22:12.207Z,-0.12
2023-01-30T09:24:59.049Z,-0.17
2023-01-30T09:27:45.056Z,-0.13
2023-01-30T09:30:30.744Z,-0.15
2023-01-30T09:33:20.275Z,-0.17
2023-01-30T09:36:06.102Z,-0.16
2023-01-30T09:38:51.229Z,-0.14
2023-01-30T09:42:06.018Z,-0.10
2023-01-30T09:45:20.736Z,-0.08
2023-01-30T09:48:25.761Z,-0.05
2023-01-30T09:51:26.030Z,-0.02
2023-01-30T09:54:24.511Z,-0.01
2023-01-30T09:57:24.770Z,0.02
2023-01-30T10:00:14.220Z,0.01
2023-01-30T10:03:13.111Z,0.01
2023-01-30T10:06:07.147Z,0.02
2023-01-30T10:09:21.471Z,-0.01
2023-01-30T10:12:16.148Z,0.00
2023-01-30T10:15:07.926Z,-0.01
2023-01-30T10:18:17.854Z,-0.01
2023-01-30T10:21:37.003Z,0.03
2023-01-30T10:24:50.701Z,0.01
2023-01-30T10:27:37.682Z,0.04
2023-01-30T10:30:23.359Z,0.08
2023-01-30T10:33:22.647Z,0.10
2023-01-30T10:36:14.529Z,0.15
2023-01-30T10:39:02.777Z,0.19
2023-01-30T10:41:59.691Z,0.21
2023-01-30T10:44:45.925Z,0.21
2023-01-30T10:47:56.448Z,0.26
2023-01-30T10:50:58.503Z,0.35
2023-01-30T10:53:56.625Z,0.38
2023-01-30T10:57:08.193Z,0.43
2023-01-30T11:00:02.415Z,0.46
2023-01-30T11:03:09.369Z,0.48
2023-01-30T11:06:06.210Z,0.49
2023-01-30T11:08:54.095Z,0.52
2023-01-30T11:11:52.669Z,0.54
2023-01-30T11:15:04.016Z,0.53
2023-01-30T11:17:49.819Z,0.55
2023-01-30T11:20:44.183Z,0.56
2023-01-30T11:23:34.869Z,0.54
2023-01-30T11:26:45.463Z,0.60
2023-01-30T11:29:35.127Z,0.64
2023-01-30T11:32:27.105Z,0.69
2023-01-30T11:35:15.316Z,0.73
2023-01-30T11:38:24.330Z,0.78
2023-01-30T11:41:09.465Z,0.80
2023-01-30T11:44:03.597Z,0.83
2023-01-30T11:46:49.499Z,0.87
2023-01-30T11:49:57.081Z,0.90
2023-01-30T11:52:46.876Z,0.96
2023-01-30T11:55:37.705Z,0.99
2023-01-30T11:58:23.059Z,0.98
2023-01-30T12:01:11.064Z,0.94
2023-01-30T12:03:58.411Z,0.93
2023-01-30T12:06:44.385Z,0.90
2023-01-30T12:09:37.329Z,0.92
2023-01-30T12:12:32.807Z,0.92
2023-01-30T12:15:22.283Z,0.92
2023-01-30T12:18:25.436Z,0.97
2023-01-30T12:21:22.089Z,0.95
2023-01-30T12:24:20.934Z,0.94
2023-01-30T12:27:23.786Z,0.94
2023-01-30T12:30:13.445Z,1.04
2023-01-30T12:36:01.179Z,1.18
2023-01-30T12:39:03.167Z,1.14
2023-01-30T12:41:56.710Z,1.06
2023-01-30T12:45:17.815Z,0.96
2023-01-30T12:48:29.032Z,0.93
2023-01-30T12:51:14.469Z,0.91
2023-01-30T12:54:05.800Z,0.93
2023-01-30T12:57:09.536Z,1.02
2023-01-30T13:00:05.973Z,1.08
2023-01-30T13:02:55.984Z,1.15
2023-01-30T13:06:07.543Z,1.19
2023-01-30T13:09:06.140Z,1.23
2023-01-30T13:12:08.480Z,1.30
2023-01-30T13:15:14.892Z,1.36
2023-01-30T13:18:03.398Z,1.34
2023-01-30T13:21:10.610Z,1.35
2023-01-30T13:24:16.692Z,1.37
2023-01-30T13:27:06.388Z,1.40
2023-01-30T13:29:53.851Z,1.40
2023-01-30T13:32:43.499Z,1.42
2023-01-30T13:35:37.026Z,1.47
2023-01-30T13:38:26.739Z,1.49
2023-01-30T13:41:17.288Z,1.52
2023-01-30T13:44:16.464Z,1.53
2023-01-30T13:47:23.202Z,1.53
2023-01-30T13:50:33.230Z,1.53
2023-01-30T13:53:25.379Z,1.53
2023-01-30T13:56:44.481Z,1.52
2023-01-30T13:59:53.250Z,1.50
2023-01-30T14:02:58.344Z,1.50
2023-01-30T14:06:00.978Z,1.52
2023-01-30T14:08:46.669Z,1.54
2023-01-30T14:11:35.129Z,1.56
2023-01-30T14:14:28.179Z,1.56
2023-01-30T14:17:16.617Z,1.57
2023-01-30T14:20:13.719Z,1.62
2023-01-30T14:23:19.494Z,1.70
2023-01-30T14:26:04.894Z,1.73
2023-01-30T14:28:51.086Z,1.73
2023-01-30T14:31:48.276Z,1.73
2023-01-30T14:34:40.619Z,1.76
2023-01-30T14:37:35.225Z,1.76
2023-01-30T14:40:23.803Z,1.79
2023-01-30T14:43:12.081Z,1.76
2023-01-30T14:46:07.492Z,1.75
2023-01-30T14:49:04.443Z,1.74
2023-01-30T14:51:50.225Z,1.76
2023-01-30T14:54:42.822Z,1.76
2023-01-30T14:57:33.058Z,1.81
2023-01-30T15:00:21.029Z,1.82
2023-01-30T15:03:20.425Z,1.81
2023-01-30T15:06:07.015Z,1.83
2023-01-30T15:08:52.773Z,1.84
2023-01-30T15:11:38.819Z,1.85
2023-01-30T15:15:10.982Z,1.85
2023-01-30T15:18:08.689Z,1.84
2023-01-30T15:21:03.495Z,1.84
2023-01-30T15:24:12.150Z,1.85
2023-01-30T15:27:24.575Z,1.84
2023-01-30T15:30:29.278Z,1.86
2023-01-30T15:33:29.476Z,1.88
2023-01-30T15:36:34.233Z,1.85
2023-01-30T15:39:23.673Z,1.76
2023-01-30T15:42:15.198Z,1.73
2023-01-30T15:45:11.354Z,1.69
2023-01-30T15:48:16.471Z,1.67
2023-01-30T15:51:03.317Z,1.67
2023-01-30T15:53:49.194Z,1.67
2023-01-30T15:56:35.400Z,1.64
2023-01-30T15:59:32.434Z,1.62
2023-01-30T16:02:29.084Z,1.56
2023-01-30T16:05:18.095Z,1.56
2023-01-30T16:08:18.103Z,1.58
2023-01-30T16:11:03.977Z,1.57
2023-01-30T16:13:49.592Z,1.59
2023-01-30T16:16:35.698Z,1.60
2023-01-30T16:19:29.159Z,1.63
2023-01-30T16:22:20.778Z,1.64
2023-01-30T16:25:15.471Z,1.66
2023-01-30T16:28:03.803Z,1.67
2023-01-30T16:30:49.362Z,1.68
2023-01-30T16:33:37.886Z,1.69
2023-01-30T16:36:23.472Z,1.72
2023-01-30T16:39:34.976Z,1.73
2023-01-30T16:42:30.764Z,1.76
2023-01-30T16:45:21.198Z,1.77
2023-01-30T16:48:30.887Z,1.77
2023-01-30T16:51:22.947Z,1.79
2023-01-30T16:54:18.493Z,1.80
2023-01-30T16:57:05.093Z,1.82
2023-01-30T16:59:51.346Z,1.83
2023-01-30T17:02:39.798Z,1.84
2023-01-30T17:05:28.719Z,1.86
2023-01-30T17:08:48.252Z,1.89
2023-01-30T17:11:43.178Z,1.91
2023-01-30T17:14:32.927Z,1.92
2023-01-30T17:17:19.747Z,1.92
2023-01-30T17:20:05.490Z,1.95
2023-01-30T17:22:57.851Z,1.93
2023-01-30T17:25:46.658Z,1.96
2023-01-30T17:28:32.094Z,1.98
2023-01-30T17:31:17.959Z,2.00
2023-01-30T17:34:03.247Z,2.03
2023-01-30T17:36:50.455Z,2.04
2023-01-30T17:39:36.068Z,2.03
2023-01-30T17:42:22.277Z,2.06
2023-01-30T17:45:08.232Z,2.08
2023-01-30T17:47:54.466Z,2.09
2023-01-30T17:50:40.339Z,2.12
2023-01-30T17:53:25.693Z,2.14
2023-01-30T17:56:22.242Z,2.16
2023-01-30T17:59:13.722Z,2.15
2023-01-30T18:01:59.749Z,2.17
2023-01-30T18:04:45.206Z,2.18
2023-01-30T18:07:30.711Z,2.16
2023-01-30T18:10:19.193Z,2.16
2023-01-30T18:13:05.051Z,2.18
2023-01-30T18:15:52.606Z,2.17
2023-01-30T18:18:38.242Z,2.17
2023-01-30T18:21:23.585Z,2.15
2023-01-30T18:24:09.280Z,2.13
2023-01-30T18:26:54.814Z,2.13
2023-01-30T18:29:40.348Z,2.10
2023-01-30T18:32:25.618Z,2.09
2023-01-30T18:35:11.159Z,2.13
2023-01-30T18:38:00.778Z,2.13
2023-01-30T18:40:47.949Z,2.14
2023-01-30T18:43:33.466Z,2.15
2023-01-30T18:46:19.332Z,2.15
2023-01-30T18:49:04.980Z,2.15
2023-01-30T18:51:50.871Z,2.16
2023-01-30T18:54:37.552Z,2.16
2023-01-30T18:57:22.994Z,2.19
2023-01-30T19:00:09.128Z,2.21
2023-01-30T19:02:55.055Z,2.21
2023-01-30T19:05:40.818Z,2.21
2023-01-30T19:08:26.641Z,2.22
2023-01-30T19:11:36.478Z,2.23
2023-01-30T19:14:21.981Z,2.26
2023-01-30T19:17:07.445Z,2.29
2023-01-30T19:19:52.801Z,2.33
2023-01-30T19:22:39.067Z,2.35
2023-01-30T19:25:24.695Z,2.37
2023-01-30T19:28:10.098Z,2.38
2023-01-30T19:30:55.754Z,2.39
2023-01-30T19:33:45.842Z,2.39
2023-01-30T19:36:32.830Z,2.42
2023-01-30T19:39:18.589Z,2.42
2023-01-30T19:42:04.169Z,2.41
2023-01-30T19:44:49.732Z,2.40
2023-01-30T19:47:35.262Z,2.38
2023-01-30T19:50:21.015Z,2.35
2023-01-30T19:53:06.873Z,2.33
2023-01-30T19:55:53.367Z,2.31
2023-01-30T19:58:40.351Z,2.29
2023-01-30T20:01:29.671Z,2.27
2023-01-30T20:04:15.237Z,2.24
2023-01-30T20:07:00.479Z,2.22
2023-01-30T20:09:45.999Z,2.22
2023-01-30T20:12:32.156Z,2.25
2023-01-30T20:15:17.813Z,2.27
2023-01-30T20:18:03.371Z,2.27
2023-01-30T20:20:48.848Z,2.27
2023-01-30T20:23:34.838Z,2.29
2023-01-30T20:26:25.526Z,2.29
2023-01-30T20:29:11.961Z,2.31
2023-01-30T20:31:58.013Z,2.31
2023-01-30T20:34:43.419Z,2.32
2023-01-30T20:37:28.757Z,2.30
2023-01-30T20:40:17.482Z,2.29
2023-01-30T20:43:03.700Z,2.27
2023-01-30T20:45:49.530Z,2.27
2023-01-30T20:48:36.177Z,2.26
2023-01-30T20:51:27.534Z,2.28
2023-01-30T20:54:15.173Z,2.28
2023-01-30T20:57:02.632Z,2.29
2023-01-30T20:59:48.444Z,2.28
2023-01-30T21:02:33.856Z,2.29
2023-01-30T21:05:20.158Z,2.30
2023-01-30T21:08:06.152Z,2.30
2023-01-30T21:10:51.513Z,2.31
2023-01-30T21:13:38.328Z,2.31
2023-01-30T21:16:26.683Z,2.31
2023-01-30T21:19:16.319Z,2.31
2023-01-30T21:22:07.613Z,2.32
2023-01-30T21:24:52.988Z,2.33
2023-01-30T21:27:40.247Z,2.33
2023-01-30T21:30:26.585Z,2.33
2023-01-30T21:33:11.667Z,2.34
2023-01-30T21:35:59.737Z,2.33
2023-01-30T21:39:03.872Z,2.33
2023-01-30T21:41:52.148Z,2.34
2023-01-30T21:44:38.068Z,2.35
2023-01-30T21:47:23.458Z,2.33
2023-01-30T21:50:09.361Z,2.32
2023-01-30T21:52:54.787Z,2.29
2023-01-30T21:55:40.414Z,2.31
2023-01-30T21:58:25.996Z,2.33
2023-01-30T22:01:11.719Z,2.34
2023-01-30T22:04:00.929Z,2.34
2023-01-30T22:06:46.536Z,2.35
2023-01-30T22:09:32.008Z,2.33
2023-01-30T22:12:17.424Z,2.35
2023-01-30T22:15:02.904Z,2.37
2023-01-30T22:17:51.364Z,2.38
2023-01-30T22:20:36.578Z,2.38
2023-01-30T22:23:22.024Z,2.37
2023-01-30T22:26:08.399Z,2.37
2023-01-30T22:28:58.744Z,2.35
2023-01-30T22:31:45.125Z,2.34
2023-01-30T22:34:30.847Z,2.34
2023-01-30T22:37:16.479Z,2.33
2023-01-30T22:40:02.221Z,2.33
2023-01-30T22:42:48.412Z,2.32
2023-01-30T22:45:36.058Z,2.33
2023-01-30T22:48:21.673Z,2.34
2023-01-30T22:51:16.246Z,2.35
2023-01-30T22:54:05.168Z,2.34
2023-01-30T22:56:51.542Z,2.32
2023-01-30T22:59:36.899Z,2.31
2023-01-30T23:02:22.299Z,2.32
2023-01-30T23:05:07.803Z,2.33
2023-01-30T23:07:53.369Z,2.32
2023-01-30T23:10:40.318Z,2.31
2023-01-30T23:13:26.043Z,2.26
2023-01-30T23:16:12.657Z,2.24
2023-01-30T23:18:58.917Z,2.22
2023-01-30T23:21:45.887Z,2.20
2023-01-30T23:24:31.292Z,2.21
2023-01-30T23:27:20.896Z,2.20
2023-01-30T23:30:06.800Z,2.22
2023-01-30T23:32:52.136Z,2.22
2023-01-30T23:35:40.723Z,2.24
2023-01-30T23:38:25.949Z,2.25
2023-01-30T23:41:14.790Z,2.25
2023-01-30T23:44:01.002Z,2.23
2023-01-30T23:46:46.580Z,2.21
2023-01-30T23:49:32.236Z,2.18
2023-01-30T23:52:17.641Z,2.19
2023-01-30T23:55:03.378Z,2.19
2023-01-30T23:57:49.181Z,2.19
